Terminal Aerodrome Forecast
Issued by NWS Mt. Holly, NJ

Home | Current Version | Previous Version | Text Only | Print | Product List | Glossary On
Versions: 1 2 3 4 5 6 7 8 9 10 11 12 13 14 15 16
000
FTUS41 KPHI 221747
TAFABE
TAF
KABE 221747Z 2218/2318 VRB03KT 6SM -DZ BR BKN050
     FM222300 09005KT P6SM OVC090
     FM230300 09005KT P6SM BKN120 WS020/19030KT
     FM230800 10005KT 4SM SHRA OVC025 WS020/20030KT
     FM231200 14008KT 3SM SHRA OVC007 WS020/19040KT
     FM231500 22009G17KT 3SM -SHRA OVC005=

USA.gov is the U.S. government's official web portal to all federal, state and local government web resources and services.